sensor_id;sensor_type;location;lat;lon;timestamp;P1;durP1;ratioP1;P2;durP2;ratioP2
56960;SDS011;42857;49.768;22.716;2022-08-24T00:01:37;21.58;;;8.75;;
56960;SDS011;42857;49.768;22.716;2022-08-24T00:04:04;24.00;;;8.98;;
56960;SDS011;42857;49.768;22.716;2022-08-24T00:06:30;22.48;;;10.27;;
56960;SDS011;42857;49.768;22.716;2022-08-24T00:08:57;16.80;;;9.77;;
56960;SDS011;42857;49.768;22.716;2022-08-24T00:11:23;20.75;;;9.90;;
56960;SDS011;42857;49.768;22.716;2022-08-24T00:13:49;18.83;;;9.15;;
56960;SDS011;42857;49.768;22.716;2022-08-24T00:16:15;23.92;;;9.93;;
56960;SDS011;42857;49.768;22.716;2022-08-24T00:18:42;17.83;;;8.75;;
56960;SDS011;42857;49.768;22.716;2022-08-24T00:21:08;18.63;;;9.55;;
56960;SDS011;42857;49.768;22.716;2022-08-24T00:23:34;22.25;;;9.77;;
56960;SDS011;42857;49.768;22.716;2022-08-24T00:26:01;20.98;;;10.70;;
56960;SDS011;42857;49.768;22.716;2022-08-24T00:28:28;27.73;;;11.40;;
56960;SDS011;42857;49.768;22.716;2022-08-24T00:30:54;30.55;;;11.73;;
56960;SDS011;42857;49.768;22.716;2022-08-24T00:33:20;27.88;;;10.27;;
56960;SDS011;42857;49.768;22.716;2022-08-24T00:35:46;18.20;;;9.70;;
56960;SDS011;42857;49.768;22.716;2022-08-24T00:38:12;18.00;;;10.18;;
56960;SDS011;42857;49.768;22.716;2022-08-24T00:40:39;19.27;;;9.73;;
56960;SDS011;42857;49.768;22.716;2022-08-24T00:43:06;22.60;;;9.82;;
56960;SDS011;42857;49.768;22.716;2022-08-24T00:45:33;23.05;;;10.20;;
56960;SDS011;42857;49.768;22.716;2022-08-24T00:48:02;21.23;;;10.20;;
56960;SDS011;42857;49.768;22.716;2022-08-24T00:50:34;18.95;;;9.55;;
56960;SDS011;42857;49.768;22.716;2022-08-24T00:53:03;27.85;;;11.07;;
56960;SDS011;42857;49.768;22.716;2022-08-24T00:55:35;22.42;;;9.88;;
56960;SDS011;42857;49.768;22.716;2022-08-24T00:58:04;25.88;;;10.75;;
56960;SDS011;42857;49.768;22.716;2022-08-24T01:00:33;22.92;;;11.10;;
56960;SDS011;42857;49.768;22.716;2022-08-24T01:03:01;29.25;;;10.25;;
56960;SDS011;42857;49.768;22.716;2022-08-24T01:05:29;33.17;;;10.90;;
56960;SDS011;42857;49.768;22.716;2022-08-24T01:07:55;26.27;;;11.13;;
56960;SDS011;42857;49.768;22.716;2022-08-24T01:10:22;23.50;;;10.43;;
56960;SDS011;42857;49.768;22.716;2022-08-24T01:12:49;25.10;;;9.98;;
56960;SDS011;42857;49.768;22.716;2022-08-24T01:15:16;26.20;;;10.35;;
56960;SDS011;42857;49.768;22.716;2022-08-24T01:17:44;18.38;;;10.45;;
56960;SDS011;42857;49.768;22.716;2022-08-24T01:20:29;20.60;;;10.48;;
56960;SDS011;42857;49.768;22.716;2022-08-24T01:25:25;24.55;;;10.43;;
56960;SDS011;42857;49.768;22.716;2022-08-24T01:27:52;26.42;;;11.63;;
56960;SDS011;42857;49.768;22.716;2022-08-24T01:30:19;24.52;;;10.35;;
56960;SDS011;42857;49.768;22.716;2022-08-24T01:32:52;27.65;;;10.60;;
56960;SDS011;42857;49.768;22.716;2022-08-24T01:35:19;24.77;;;10.73;;
56960;SDS011;42857;49.768;22.716;2022-08-24T01:37:45;25.42;;;10.57;;
56960;SDS011;42857;49.768;22.716;2022-08-24T01:40:11;24.65;;;10.27;;
56960;SDS011;42857;49.768;22.716;2022-08-24T01:42:37;21.83;;;10.02;;
56960;SDS011;42857;49.768;22.716;2022-08-24T01:45:04;21.63;;;9.27;;
56960;SDS011;42857;49.768;22.716;2022-08-24T01:47:30;30.67;;;10.68;;
56960;SDS011;42857;49.768;22.716;2022-08-24T01:49:56;19.95;;;9.50;;
56960;SDS011;42857;49.768;22.716;2022-08-24T01:52:23;30.38;;;11.45;;
56960;SDS011;42857;49.768;22.716;2022-08-24T01:54:49;17.25;;;9.60;;
56960;SDS011;42857;49.768;22.716;2022-08-24T01:57:16;27.98;;;9.93;;
56960;SDS011;42857;49.768;22.716;2022-08-24T01:59:43;24.75;;;10.18;;
56960;SDS011;42857;49.768;22.716;2022-08-24T02:02:22;27.75;;;11.07;;
56960;SDS011;42857;49.768;22.716;2022-08-24T02:04:50;21.83;;;10.95;;
56960;SDS011;42857;49.768;22.716;2022-08-24T02:07:16;29.35;;;11.18;;
56960;SDS011;42857;49.768;22.716;2022-08-24T02:09:42;31.17;;;10.38;;
56960;SDS011;42857;49.768;22.716;2022-08-24T02:12:08;25.90;;;9.98;;
56960;SDS011;42857;49.768;22.716;2022-08-24T02:14:36;18.05;;;9.02;;
56960;SDS011;42857;49.768;22.716;2022-08-24T02:17:03;22.33;;;10.07;;
56960;SDS011;42857;49.768;22.716;2022-08-24T02:19:29;30.20;;;10.65;;
56960;SDS011;42857;49.768;22.716;2022-08-24T02:21:55;36.60;;;11.20;;
56960;SDS011;42857;49.768;22.716;2022-08-24T02:24:21;25.90;;;9.68;;
56960;SDS011;42857;49.768;22.716;2022-08-24T02:26:47;28.90;;;10.48;;
56960;SDS011;42857;49.768;22.716;2022-08-24T02:29:14;31.98;;;12.20;;
56960;SDS011;42857;49.768;22.716;2022-08-24T02:31:40;33.47;;;10.63;;
56960;SDS011;42857;49.768;22.716;2022-08-24T02:34:06;29.48;;;11.52;;
56960;SDS011;42857;49.768;22.716;2022-08-24T02:36:33;27.75;;;10.15;;
56960;SDS011;42857;49.768;22.716;2022-08-24T02:38:59;24.48;;;10.45;;
56960;SDS011;42857;49.768;22.716;2022-08-24T02:41:25;25.77;;;10.32;;
56960;SDS011;42857;49.768;22.716;2022-08-24T02:43:52;24.77;;;10.43;;
56960;SDS011;42857;49.768;22.716;2022-08-24T02:46:19;25.98;;;10.23;;
56960;SDS011;42857;49.768;22.716;2022-08-24T02:48:45;24.65;;;9.52;;
56960;SDS011;42857;49.768;22.716;2022-08-24T02:51:28;26.00;;;10.35;;
56960;SDS011;42857;49.768;22.716;2022-08-24T02:53:56;29.80;;;10.88;;
56960;SDS011;42857;49.768;22.716;2022-08-24T02:56:22;25.98;;;10.25;;
56960;SDS011;42857;49.768;22.716;2022-08-24T02:58:48;25.50;;;11.55;;
56960;SDS011;42857;49.768;22.716;2022-08-24T03:01:14;27.48;;;10.95;;
56960;SDS011;42857;49.768;22.716;2022-08-24T03:03:41;26.17;;;11.80;;
56960;SDS011;42857;49.768;22.716;2022-08-24T03:06:07;23.45;;;10.85;;
56960;SDS011;42857;49.768;22.716;2022-08-24T03:08:33;28.88;;;10.88;;
56960;SDS011;42857;49.768;22.716;2022-08-24T03:10:59;22.70;;;10.27;;
56960;SDS011;42857;49.768;22.716;2022-08-24T03:13:26;28.63;;;10.82;;
56960;SDS011;42857;49.768;22.716;2022-08-24T03:15:52;28.77;;;12.43;;
56960;SDS011;42857;49.768;22.716;2022-08-24T03:18:19;20.90;;;9.77;;
56960;SDS011;42857;49.768;22.716;2022-08-24T03:20:45;28.70;;;10.98;;
56960;SDS011;42857;49.768;22.716;2022-08-24T03:23:11;25.65;;;10.23;;
56960;SDS011;42857;49.768;22.716;2022-08-24T03:25:38;30.85;;;10.38;;
56960;SDS011;42857;49.768;22.716;2022-08-24T03:28:04;24.42;;;9.75;;
56960;SDS011;42857;49.768;22.716;2022-08-24T03:30:30;22.35;;;9.18;;
56960;SDS011;42857;49.768;22.716;2022-08-24T03:32:56;22.90;;;9.48;;
56960;SDS011;42857;49.768;22.716;2022-08-24T03:35:22;24.75;;;10.02;;
56960;SDS011;42857;49.768;22.716;2022-08-24T03:37:48;28.92;;;10.32;;
56960;SDS011;42857;49.768;22.716;2022-08-24T03:40:15;29.15;;;10.05;;
56960;SDS011;42857;49.768;22.716;2022-08-24T03:42:41;26.77;;;9.75;;
56960;SDS011;42857;49.768;22.716;2022-08-24T03:45:07;30.10;;;11.57;;
56960;SDS011;42857;49.768;22.716;2022-08-24T03:47:34;24.92;;;9.30;;
56960;SDS011;42857;49.768;22.716;2022-08-24T03:50:00;27.13;;;10.30;;
56960;SDS011;42857;49.768;22.716;2022-08-24T03:52:26;28.38;;;13.43;;
56960;SDS011;42857;49.768;22.716;2022-08-24T03:54:52;26.67;;;11.00;;
56960;SDS011;42857;49.768;22.716;2022-08-24T03:57:18;23.02;;;11.05;;
56960;SDS011;42857;49.768;22.716;2022-08-24T03:59:44;26.33;;;10.80;;
56960;SDS011;42857;49.768;22.716;2022-08-24T04:02:10;27.90;;;10.77;;
56960;SDS011;42857;49.768;22.716;2022-08-24T04:04:36;24.63;;;10.63;;
56960;SDS011;42857;49.768;22.716;2022-08-24T04:07:02;33.42;;;11.05;;
56960;SDS011;42857;49.768;22.716;2022-08-24T04:09:28;35.85;;;12.32;;
56960;SDS011;42857;49.768;22.716;2022-08-24T04:11:54;24.90;;;10.82;;
56960;SDS011;42857;49.768;22.716;2022-08-24T04:14:20;26.88;;;10.27;;
56960;SDS011;42857;49.768;22.716;2022-08-24T04:16:46;31.20;;;12.13;;
56960;SDS011;42857;49.768;22.716;2022-08-24T04:19:12;23.88;;;11.38;;
56960;SDS011;42857;49.768;22.716;2022-08-24T04:21:39;29.13;;;11.07;;
56960;SDS011;42857;49.768;22.716;2022-08-24T04:24:06;33.72;;;12.20;;
56960;SDS011;42857;49.768;22.716;2022-08-24T04:26:32;31.45;;;12.52;;
56960;SDS011;42857;49.768;22.716;2022-08-24T04:29:00;33.40;;;11.25;;
56960;SDS011;42857;49.768;22.716;2022-08-24T04:31:26;30.63;;;12.00;;
56960;SDS011;42857;49.768;22.716;2022-08-24T04:33:54;33.67;;;11.82;;
56960;SDS011;42857;49.768;22.716;2022-08-24T04:36:21;37.38;;;13.07;;
56960;SDS011;42857;49.768;22.716;2022-08-24T04:38:47;33.55;;;11.10;;
56960;SDS011;42857;49.768;22.716;2022-08-24T04:41:14;35.05;;;12.32;;
56960;SDS011;42857;49.768;22.716;2022-08-24T04:43:40;30.38;;;11.23;;
56960;SDS011;42857;49.768;22.716;2022-08-24T04:46:09;25.38;;;10.95;;
56960;SDS011;42857;49.768;22.716;2022-08-24T04:48:35;29.05;;;11.73;;
56960;SDS011;42857;49.768;22.716;2022-08-24T04:51:02;29.63;;;11.05;;
56960;SDS011;42857;49.768;22.716;2022-08-24T04:53:28;28.42;;;10.23;;
56960;SDS011;42857;49.768;22.716;2022-08-24T04:55:55;25.42;;;10.70;;
56960;SDS011;42857;49.768;22.716;2022-08-24T04:58:21;31.85;;;12.10;;
56960;SDS011;42857;49.768;22.716;2022-08-24T05:00:47;32.35;;;10.30;;
56960;SDS011;42857;49.768;22.716;2022-08-24T05:03:13;31.52;;;10.70;;
56960;SDS011;42857;49.768;22.716;2022-08-24T05:05:45;34.17;;;11.00;;
56960;SDS011;42857;49.768;22.716;2022-08-24T05:08:13;29.17;;;10.07;;
56960;SDS011;42857;49.768;22.716;2022-08-24T05:10:40;31.00;;;9.73;;
56960;SDS011;42857;49.768;22.716;2022-08-24T05:13:06;35.25;;;9.75;;
56960;SDS011;42857;49.768;22.716;2022-08-24T05:15:33;29.33;;;9.30;;
56960;SDS011;42857;49.768;22.716;2022-08-24T05:17:59;38.30;;;8.98;;
56960;SDS011;42857;49.768;22.716;2022-08-24T05:20:25;32.55;;;9.13;;
56960;SDS011;42857;49.768;22.716;2022-08-24T05:22:51;30.10;;;9.32;;
56960;SDS011;42857;49.768;22.716;2022-08-24T05:25:17;28.13;;;9.48;;
56960;SDS011;42857;49.768;22.716;2022-08-24T05:27:43;30.35;;;10.85;;
56960;SDS011;42857;49.768;22.716;2022-08-24T05:30:10;27.70;;;9.77;;
56960;SDS011;42857;49.768;22.716;2022-08-24T05:32:36;35.15;;;9.70;;
56960;SDS011;42857;49.768;22.716;2022-08-24T05:35:03;27.13;;;8.25;;
56960;SDS011;42857;49.768;22.716;2022-08-24T05:37:30;23.33;;;8.23;;
56960;SDS011;42857;49.768;22.716;2022-08-24T05:39:56;28.25;;;9.18;;
56960;SDS011;42857;49.768;22.716;2022-08-24T05:42:22;36.38;;;10.27;;
56960;SDS011;42857;49.768;22.716;2022-08-24T05:44:49;31.85;;;9.13;;
56960;SDS011;42857;49.768;22.716;2022-08-24T05:47:14;27.90;;;8.73;;
56960;SDS011;42857;49.768;22.716;2022-08-24T05:49:40;24.60;;;8.02;;
56960;SDS011;42857;49.768;22.716;2022-08-24T05:52:07;30.83;;;8.82;;
56960;SDS011;42857;49.768;22.716;2022-08-24T05:54:33;36.10;;;8.77;;
56960;SDS011;42857;49.768;22.716;2022-08-24T05:56:59;28.58;;;8.88;;
56960;SDS011;42857;49.768;22.716;2022-08-24T05:59:28;28.33;;;8.02;;
56960;SDS011;42857;49.768;22.716;2022-08-24T06:01:54;28.65;;;8.80;;
56960;SDS011;42857;49.768;22.716;2022-08-24T06:04:20;28.52;;;8.10;;
56960;SDS011;42857;49.768;22.716;2022-08-24T06:06:46;34.55;;;8.75;;
56960;SDS011;42857;49.768;22.716;2022-08-24T06:09:14;30.05;;;8.75;;
56960;SDS011;42857;49.768;22.716;2022-08-24T06:11:40;32.42;;;10.02;;
56960;SDS011;42857;49.768;22.716;2022-08-24T06:14:07;41.38;;;11.30;;
56960;SDS011;42857;49.768;22.716;2022-08-24T06:16:34;26.58;;;8.45;;
56960;SDS011;42857;49.768;22.716;2022-08-24T06:19:00;34.55;;;9.32;;
56960;SDS011;42857;49.768;22.716;2022-08-24T06:21:27;34.28;;;9.23;;
56960;SDS011;42857;49.768;22.716;2022-08-24T06:23:53;28.92;;;8.25;;
56960;SDS011;42857;49.768;22.716;2022-08-24T06:26:19;45.70;;;10.65;;
56960;SDS011;42857;49.768;22.716;2022-08-24T06:29:05;36.97;;;8.55;;
56960;SDS011;42857;49.768;22.716;2022-08-24T06:31:34;29.13;;;9.25;;
56960;SDS011;42857;49.768;22.716;2022-08-24T06:34:01;32.63;;;8.77;;
56960;SDS011;42857;49.768;22.716;2022-08-24T06:36:26;35.55;;;8.52;;
56960;SDS011;42857;49.768;22.716;2022-08-24T06:38:52;31.10;;;7.80;;
56960;SDS011;42857;49.768;22.716;2022-08-24T06:41:18;29.23;;;8.68;;
56960;SDS011;42857;49.768;22.716;2022-08-24T06:43:45;30.95;;;8.23;;
56960;SDS011;42857;49.768;22.716;2022-08-24T06:46:12;32.72;;;7.68;;
56960;SDS011;42857;49.768;22.716;2022-08-24T06:48:38;32.88;;;7.35;;
56960;SDS011;42857;49.768;22.716;2022-08-24T06:51:08;29.58;;;6.80;;
56960;SDS011;42857;49.768;22.716;2022-08-24T06:53:34;32.08;;;8.77;;
56960;SDS011;42857;49.768;22.716;2022-08-24T06:56:01;33.95;;;7.22;;
56960;SDS011;42857;49.768;22.716;2022-08-24T06:58:27;26.45;;;7.22;;
56960;SDS011;42857;49.768;22.716;2022-08-24T07:00:53;33.35;;;7.38;;
56960;SDS011;42857;49.768;22.716;2022-08-24T07:03:20;31.75;;;7.15;;
56960;SDS011;42857;49.768;22.716;2022-08-24T07:05:50;30.95;;;7.78;;
56960;SDS011;42857;49.768;22.716;2022-08-24T07:08:16;30.90;;;8.27;;
56960;SDS011;42857;49.768;22.716;2022-08-24T07:10:42;31.85;;;7.53;;
56960;SDS011;42857;49.768;22.716;2022-08-24T07:13:08;30.58;;;7.50;;
56960;SDS011;42857;49.768;22.716;2022-08-24T07:15:35;32.17;;;7.13;;
56960;SDS011;42857;49.768;22.716;2022-08-24T07:18:01;32.50;;;6.85;;
56960;SDS011;42857;49.768;22.716;2022-08-24T07:20:30;29.73;;;7.05;;
56960;SDS011;42857;49.768;22.716;2022-08-24T07:22:56;33.50;;;7.63;;
56960;SDS011;42857;49.768;22.716;2022-08-24T07:25:22;30.27;;;7.78;;
56960;SDS011;42857;49.768;22.716;2022-08-24T07:27:49;34.95;;;9.48;;
56960;SDS011;42857;49.768;22.716;2022-08-24T07:30:15;39.67;;;8.13;;
56960;SDS011;42857;49.768;22.716;2022-08-24T07:32:41;36.97;;;7.88;;
56960;SDS011;42857;49.768;22.716;2022-08-24T07:35:07;37.50;;;7.63;;
56960;SDS011;42857;49.768;22.716;2022-08-24T07:37:33;26.25;;;7.57;;
56960;SDS011;42857;49.768;22.716;2022-08-24T07:40:00;42.67;;;8.85;;
56960;SDS011;42857;49.768;22.716;2022-08-24T07:42:26;32.85;;;7.75;;
56960;SDS011;42857;49.768;22.716;2022-08-24T07:44:52;34.55;;;8.30;;
56960;SDS011;42857;49.768;22.716;2022-08-24T07:47:18;39.97;;;9.32;;
56960;SDS011;42857;49.768;22.716;2022-08-24T07:49:44;28.67;;;7.18;;
56960;SDS011;42857;49.768;22.716;2022-08-24T07:52:10;49.72;;;8.68;;
56960;SDS011;42857;49.768;22.716;2022-08-24T07:54:37;34.20;;;7.10;;
56960;SDS011;42857;49.768;22.716;2022-08-24T07:57:03;33.30;;;8.00;;
56960;SDS011;42857;49.768;22.716;2022-08-24T07:59:30;33.60;;;8.20;;
56960;SDS011;42857;49.768;22.716;2022-08-24T08:01:57;40.85;;;8.50;;
56960;SDS011;42857;49.768;22.716;2022-08-24T08:04:23;35.17;;;7.00;;
56960;SDS011;42857;49.768;22.716;2022-08-24T08:06:50;32.08;;;8.18;;
56960;SDS011;42857;49.768;22.716;2022-08-24T08:09:16;36.33;;;7.40;;
56960;SDS011;42857;49.768;22.716;2022-08-24T08:11:42;38.50;;;8.30;;
56960;SDS011;42857;49.768;22.716;2022-08-24T08:14:08;40.88;;;8.65;;
56960;SDS011;42857;49.768;22.716;2022-08-24T08:16:34;42.90;;;7.88;;
56960;SDS011;42857;49.768;22.716;2022-08-24T08:19:02;41.28;;;8.18;;
56960;SDS011;42857;49.768;22.716;2022-08-24T08:21:29;48.05;;;7.97;;
56960;SDS011;42857;49.768;22.716;2022-08-24T08:24:13;45.10;;;7.43;;
56960;SDS011;42857;49.768;22.716;2022-08-24T08:26:40;39.92;;;7.97;;
56960;SDS011;42857;49.768;22.716;2022-08-24T08:29:07;36.08;;;8.70;;
56960;SDS011;42857;49.768;22.716;2022-08-24T08:31:34;36.72;;;8.07;;
56960;SDS011;42857;49.768;22.716;2022-08-24T08:34:00;40.63;;;6.72;;
56960;SDS011;42857;49.768;22.716;2022-08-24T08:36:26;34.72;;;7.70;;
56960;SDS011;42857;49.768;22.716;2022-08-24T08:38:52;40.25;;;8.85;;
56960;SDS011;42857;49.768;22.716;2022-08-24T08:44:16;35.03;;;8.48;;
56960;SDS011;42857;49.768;22.716;2022-08-24T08:52:04;43.90;;;8.18;;
56960;SDS011;42857;49.768;22.716;2022-08-24T08:57:03;50.42;;;9.25;;
56960;SDS011;42857;49.768;22.716;2022-08-24T08:59:36;51.42;;;8.05;;
56960;SDS011;42857;49.768;22.716;2022-08-24T09:04:53;54.75;;;9.70;;
56960;SDS011;42857;49.768;22.716;2022-08-24T09:07:37;52.63;;;9.02;;
56960;SDS011;42857;49.768;22.716;2022-08-24T09:10:08;58.17;;;8.60;;
56960;SDS011;42857;49.768;22.716;2022-08-24T09:22:42;44.35;;;8.45;;
56960;SDS011;42857;49.768;22.716;2022-08-24T09:28:05;43.05;;;9.07;;
56960;SDS011;42857;49.768;22.716;2022-08-24T09:33:24;63.90;;;14.75;;
56960;SDS011;42857;49.768;22.716;2022-08-24T09:41:21;50.75;;;8.95;;
56960;SDS011;42857;49.768;22.716;2022-08-24T09:56:48;32.90;;;7.45;;
56960;SDS011;42857;49.768;22.716;2022-08-24T09:59:23;46.38;;;8.32;;
56960;SDS011;42857;49.768;22.716;2022-08-24T10:07:23;38.78;;;8.30;;
56960;SDS011;42857;49.768;22.716;2022-08-24T10:10:01;55.75;;;9.40;;
56960;SDS011;42857;49.768;22.716;2022-08-24T10:12:34;41.38;;;7.93;;
56960;SDS011;42857;49.768;22.716;2022-08-24T10:20:21;41.15;;;8.18;;
56960;SDS011;42857;49.768;22.716;2022-08-24T10:30:46;54.00;;;9.57;;
56960;SDS011;42857;49.768;22.716;2022-08-24T10:38:29;53.35;;;9.13;;
56960;SDS011;42857;49.768;22.716;2022-08-24T10:46:47;53.60;;;8.82;;
56960;SDS011;42857;49.768;22.716;2022-08-24T10:49:27;57.33;;;9.02;;
56960;SDS011;42857;49.768;22.716;2022-08-24T10:54:25;55.13;;;9.13;;
56960;SDS011;42857;49.768;22.716;2022-08-24T11:04:35;40.47;;;8.40;;
56960;SDS011;42857;49.768;22.716;2022-08-24T11:09:51;39.85;;;8.00;;
56960;SDS011;42857;49.768;22.716;2022-08-24T11:14:45;49.45;;;9.52;;
56960;SDS011;42857;49.768;22.716;2022-08-24T11:17:16;50.92;;;9.98;;
56960;SDS011;42857;49.768;22.716;2022-08-24T11:19:43;48.47;;;9.27;;
56960;SDS011;42857;49.768;22.716;2022-08-24T11:25:05;59.85;;;8.60;;
56960;SDS011;42857;49.768;22.716;2022-08-24T11:30:05;43.33;;;8.70;;
56960;SDS011;42857;49.768;22.716;2022-08-24T11:32:45;48.03;;;8.85;;
56960;SDS011;42857;49.768;22.716;2022-08-24T11:40:32;43.72;;;8.65;;
56960;SDS011;42857;49.768;22.716;2022-08-24T11:51:11;52.53;;;10.80;;
56960;SDS011;42857;49.768;22.716;2022-08-24T11:56:38;49.20;;;9.23;;
56960;SDS011;42857;49.768;22.716;2022-08-24T12:01:33;46.55;;;8.13;;
56960;SDS011;42857;49.768;22.716;2022-08-24T12:12:43;47.38;;;8.70;;
56960;SDS011;42857;49.768;22.716;2022-08-24T12:22:58;48.45;;;8.68;;
56960;SDS011;42857;49.768;22.716;2022-08-24T12:25:26;45.70;;;8.90;;
56960;SDS011;42857;49.768;22.716;2022-08-24T12:28:13;31.58;;;8.13;;
56960;SDS011;42857;49.768;22.716;2022-08-24T12:30:41;49.38;;;8.52;;
56960;SDS011;42857;49.768;22.716;2022-08-24T12:33:09;32.45;;;7.50;;
56960;SDS011;42857;49.768;22.716;2022-08-24T12:35:41;29.25;;;8.07;;
56960;SDS011;42857;49.768;22.716;2022-08-24T12:40:39;37.05;;;6.50;;
56960;SDS011;42857;49.768;22.716;2022-08-24T12:43:06;38.10;;;6.90;;
56960;SDS011;42857;49.768;22.716;2022-08-24T12:45:33;26.10;;;5.10;;
56960;SDS011;42857;49.768;22.716;2022-08-24T12:50:32;30.95;;;7.28;;
56960;SDS011;42857;49.768;22.716;2022-08-24T13:00:55;23.83;;;6.40;;
56960;SDS011;42857;49.768;22.716;2022-08-24T13:03:34;24.77;;;5.88;;
56960;SDS011;42857;49.768;22.716;2022-08-24T13:06:02;30.33;;;6.05;;
56960;SDS011;42857;49.768;22.716;2022-08-24T13:08:34;30.35;;;5.90;;
56960;SDS011;42857;49.768;22.716;2022-08-24T13:11:03;28.48;;;6.07;;
56960;SDS011;42857;49.768;22.716;2022-08-24T13:16:05;30.33;;;5.88;;
56960;SDS011;42857;49.768;22.716;2022-08-24T13:18:45;24.60;;;6.47;;
56960;SDS011;42857;49.768;22.716;2022-08-24T13:21:15;36.78;;;7.10;;
56960;SDS011;42857;49.768;22.716;2022-08-24T13:23:41;37.22;;;7.13;;
56960;SDS011;42857;49.768;22.716;2022-08-24T13:26:21;29.73;;;6.82;;
56960;SDS011;42857;49.768;22.716;2022-08-24T13:28:48;33.22;;;6.82;;
56960;SDS011;42857;49.768;22.716;2022-08-24T13:31:18;35.55;;;7.18;;
56960;SDS011;42857;49.768;22.716;2022-08-24T13:33:51;38.38;;;7.25;;
56960;SDS011;42857;49.768;22.716;2022-08-24T13:43:58;31.67;;;6.00;;
56960;SDS011;42857;49.768;22.716;2022-08-24T13:46:47;28.67;;;5.50;;
56960;SDS011;42857;49.768;22.716;2022-08-24T13:49:20;24.83;;;5.40;;
56960;SDS011;42857;49.768;22.716;2022-08-24T13:54:24;25.30;;;4.38;;
56960;SDS011;42857;49.768;22.716;2022-08-24T14:02:41;32.95;;;5.93;;
56960;SDS011;42857;49.768;22.716;2022-08-24T14:05:17;28.02;;;4.78;;
56960;SDS011;42857;49.768;22.716;2022-08-24T14:08:04;24.50;;;5.45;;
56960;SDS011;42857;49.768;22.716;2022-08-24T14:10:35;18.88;;;4.63;;
56960;SDS011;42857;49.768;22.716;2022-08-24T14:13:19;31.55;;;5.00;;
56960;SDS011;42857;49.768;22.716;2022-08-24T14:19:11;28.35;;;4.75;;
56960;SDS011;42857;49.768;22.716;2022-08-24T14:21:48;21.95;;;5.10;;
56960;SDS011;42857;49.768;22.716;2022-08-24T14:26:51;27.13;;;5.38;;
56960;SDS011;42857;49.768;22.716;2022-08-24T14:34:34;33.25;;;4.78;;
56960;SDS011;42857;49.768;22.716;2022-08-24T14:55:18;27.25;;;5.18;;
56960;SDS011;42857;49.768;22.716;2022-08-24T15:06:02;29.60;;;5.63;;
56960;SDS011;42857;49.768;22.716;2022-08-24T15:08:32;22.00;;;4.78;;
56960;SDS011;42857;49.768;22.716;2022-08-24T15:11:07;23.05;;;5.72;;
56960;SDS011;42857;49.768;22.716;2022-08-24T15:13:38;28.60;;;4.85;;
56960;SDS011;42857;49.768;22.716;2022-08-24T15:19:00;32.33;;;4.60;;
56960;SDS011;42857;49.768;22.716;2022-08-24T15:29:24;34.38;;;4.97;;
56960;SDS011;42857;49.768;22.716;2022-08-24T15:32:10;26.67;;;6.13;;
56960;SDS011;42857;49.768;22.716;2022-08-24T15:37:02;26.90;;;5.43;;
56960;SDS011;42857;49.768;22.716;2022-08-24T15:39:28;23.40;;;4.82;;
56960;SDS011;42857;49.768;22.716;2022-08-24T15:41:54;26.63;;;5.05;;
56960;SDS011;42857;49.768;22.716;2022-08-24T15:44:25;23.42;;;4.45;;
56960;SDS011;42857;49.768;22.716;2022-08-24T15:46:56;25.45;;;5.15;;
56960;SDS011;42857;49.768;22.716;2022-08-24T15:49:36;23.27;;;5.20;;
56960;SDS011;42857;49.768;22.716;2022-08-24T15:52:23;31.65;;;5.55;;
56960;SDS011;42857;49.768;22.716;2022-08-24T15:54:56;22.65;;;5.15;;
56960;SDS011;42857;49.768;22.716;2022-08-24T15:59:49;16.83;;;4.03;;
56960;SDS011;42857;49.768;22.716;2022-08-24T16:02:17;30.30;;;5.47;;
56960;SDS011;42857;49.768;22.716;2022-08-24T16:05:11;28.95;;;5.20;;
56960;SDS011;42857;49.768;22.716;2022-08-24T16:10:37;25.13;;;5.38;;
56960;SDS011;42857;49.768;22.716;2022-08-24T16:15:29;27.55;;;5.22;;
56960;SDS011;42857;49.768;22.716;2022-08-24T16:17:56;23.15;;;4.53;;
56960;SDS011;42857;49.768;22.716;2022-08-24T16:22:54;25.35;;;5.85;;
56960;SDS011;42857;49.768;22.716;2022-08-24T16:25:22;34.83;;;5.28;;
56960;SDS011;42857;49.768;22.716;2022-08-24T16:27:54;21.98;;;5.28;;
56960;SDS011;42857;49.768;22.716;2022-08-24T16:30:21;16.42;;;5.10;;
56960;SDS011;42857;49.768;22.716;2022-08-24T16:32:55;15.00;;;5.00;;
56960;SDS011;42857;49.768;22.716;2022-08-24T16:35:22;35.72;;;5.75;;
56960;SDS011;42857;49.768;22.716;2022-08-24T16:37:49;28.70;;;6.20;;
56960;SDS011;42857;49.768;22.716;2022-08-24T16:40:17;26.15;;;7.10;;
56960;SDS011;42857;49.768;22.716;2022-08-24T16:42:43;22.45;;;7.13;;
56960;SDS011;42857;49.768;22.716;2022-08-24T16:45:14;26.65;;;6.68;;
56960;SDS011;42857;49.768;22.716;2022-08-24T16:47:42;26.65;;;7.15;;
56960;SDS011;42857;49.768;22.716;2022-08-24T16:50:08;26.15;;;5.40;;
56960;SDS011;42857;49.768;22.716;2022-08-24T16:52:34;20.98;;;6.45;;
56960;SDS011;42857;49.768;22.716;2022-08-24T16:55:00;19.90;;;5.32;;
56960;SDS011;42857;49.768;22.716;2022-08-24T16:57:27;34.60;;;6.30;;
56960;SDS011;42857;49.768;22.716;2022-08-24T16:59:54;26.55;;;5.95;;
56960;SDS011;42857;49.768;22.716;2022-08-24T17:02:20;22.60;;;5.68;;
56960;SDS011;42857;49.768;22.716;2022-08-24T17:04:47;36.15;;;6.03;;
56960;SDS011;42857;49.768;22.716;2022-08-24T17:07:15;28.90;;;6.50;;
56960;SDS011;42857;49.768;22.716;2022-08-24T17:09:42;29.50;;;6.15;;
56960;SDS011;42857;49.768;22.716;2022-08-24T17:12:09;29.88;;;6.47;;
56960;SDS011;42857;49.768;22.716;2022-08-24T17:14:35;30.27;;;5.93;;
56960;SDS011;42857;49.768;22.716;2022-08-24T17:17:02;30.52;;;7.63;;
56960;SDS011;42857;49.768;22.716;2022-08-24T17:19:29;21.20;;;6.68;;
56960;SDS011;42857;49.768;22.716;2022-08-24T17:21:55;19.80;;;6.10;;
56960;SDS011;42857;49.768;22.716;2022-08-24T17:24:21;20.77;;;6.15;;
56960;SDS011;42857;49.768;22.716;2022-08-24T17:26:47;25.70;;;6.60;;
56960;SDS011;42857;49.768;22.716;2022-08-24T17:29:15;18.85;;;6.47;;
56960;SDS011;42857;49.768;22.716;2022-08-24T17:31:41;19.95;;;5.90;;
56960;SDS011;42857;49.768;22.716;2022-08-24T17:34:07;21.23;;;6.15;;
56960;SDS011;42857;49.768;22.716;2022-08-24T17:36:33;21.48;;;5.53;;
56960;SDS011;42857;49.768;22.716;2022-08-24T17:39:00;23.35;;;5.97;;
56960;SDS011;42857;49.768;22.716;2022-08-24T17:41:26;22.63;;;6.15;;
56960;SDS011;42857;49.768;22.716;2022-08-24T17:43:52;20.25;;;5.95;;
56960;SDS011;42857;49.768;22.716;2022-08-24T17:46:19;18.40;;;6.03;;
56960;SDS011;42857;49.768;22.716;2022-08-24T17:48:45;24.70;;;7.18;;
56960;SDS011;42857;49.768;22.716;2022-08-24T17:51:12;26.60;;;6.75;;
56960;SDS011;42857;49.768;22.716;2022-08-24T17:53:38;23.60;;;6.15;;
56960;SDS011;42857;49.768;22.716;2022-08-24T17:56:05;21.70;;;7.25;;
56960;SDS011;42857;49.768;22.716;2022-08-24T17:58:31;22.08;;;7.03;;
56960;SDS011;42857;49.768;22.716;2022-08-24T18:01:17;22.27;;;7.50;;
56960;SDS011;42857;49.768;22.716;2022-08-24T18:03:43;26.25;;;8.43;;
56960;SDS011;42857;49.768;22.716;2022-08-24T18:06:09;23.92;;;7.47;;
56960;SDS011;42857;49.768;22.716;2022-08-24T18:08:35;22.35;;;6.47;;
56960;SDS011;42857;49.768;22.716;2022-08-24T18:11:02;21.92;;;6.90;;
56960;SDS011;42857;49.768;22.716;2022-08-24T18:13:28;23.27;;;6.95;;